• Join FlightAware (Why Join?)
  • Login
  • US Flag 
01:32AM EDT


 

Airport Tracker/Info


-or-


 

Live Flight TrackerFlight Track Log ✈ AWE2690 ✈ 04-Jan-2014 ✈ KMYR - KCLT

Flight Track Log - Related Links

Times and Time Zones

All times are in EST time to prevent confusion due to time zone crossing. See the AWE2690 flight status page for this flight to view local times or setup timezone preferences in your user account.

Time Position Orientation Groundspeed Altitude Reporting Facility
EST Latitude Longitude Course Direction KTS MPH feet Rate Location/Type
11:29AM 33.7175 -78.9900 312° West 237 273 3,600  Level Jacksonville Center
11:30AM 33.7386 -79.0639 289° West 244 281 7,400 3,600 Climbing Jacksonville Center
11:31AM 33.8326 -79.1245 313° West  Level Estimated
11:31AM 33.7886 -79.1317 312° West 244 281 10,900  Level Jacksonville Center
11:32AM 33.8822 -79.1915 312° West  Level FlightAware Approximate
11:32AM 33.8492 -79.2042 315° West 276 318 13,500  Level Jacksonville Center
11:33AM 33.9331 -79.2571 313° West  Level Estimated
11:33AM 33.9183 -79.2839 316° Northwest 314 361 15,900  Level Jacksonville Center
11:34AM 33.9834 -79.3233 312° West  Level FlightAware Approximate
11:34AM 33.9856 -79.3764 311° West 346 398 15,900  Level Jacksonville Center
11:35AM 34.0483 -79.4539 314° West 359 413 15,900  Level Jacksonville Center
11:36AM 34.1111 -79.5367 313° West 359 413 15,900  Level Jacksonville Center
11:37AM 34.1844 -79.6319 313° West 352 405 15,900  Level Jacksonville Center
11:38AM 34.2492 -79.7172 313° West 352 405 15,900  Level Jacksonville Center
11:39AM 34.3119 -79.8056 311° West 352 405 15,900  Level Jacksonville Center
11:40AM 34.3767 -79.8939 312° West 352 405 15,900 -120 Level Jacksonville Center
11:41AM 34.4392 -79.9797 311° West 352 405 15,700 -660 Descending Jacksonville Center
11:42AM 34.5036 -80.0683 311° West 347 399 14,600 -1,140 Descending Jacksonville Center
11:43AM 34.5661 -80.1494 313° West 347 399 13,500 -1,140 Descending Jacksonville Center
11:44AM 34.6439 -80.2592 311° West 335 386 12,000 -1,020 Descending Atlanta Center
11:45AM 34.7158 -80.3569 312° West 308 354 11,000 -540 Descending Atlanta Center
11:46AM 34.7592 -80.4158 312° West 271 312 11,000  Level Atlanta Center
11:47AM 34.8133 -80.4817 315° West 272 313 11,000 -720 Level Atlanta Center
11:48AM 34.8761 -80.5600 314° West 276 318 9,500 -1,080 Descending Atlanta Center
11:49AM 34.9172 -80.6089 316° Northwest 270 311 9,000 -300 Descending Atlanta Center
11:50AM 34.9819 -80.6900 314° West 270 311 9,000  Level Atlanta Center
11:52AM 35.0425 -80.7661 314° West 273 314 9,000  Level Atlanta Center
11:52AM 35.0853 -80.8128 318° Northwest 281 323 9,000 -180 Level Atlanta Center
11:53AM 35.1733 -80.8194 356° North 296 341 8,700 -900 Descending Atlanta Center
11:54AM 35.2589 -80.8264 356° North 288 331 7,100 -1,500 Descending Atlanta Center
11:55AM 35.3303 -80.8364 353° North 284 327 5,700 -1,080 Descending Atlanta Center
11:56AM 35.4158 -80.8406 358° North 285 328 5,000 -360 Descending Atlanta Center
11:57AM 35.4931 -80.8478 356° North 284 327 5,000  Level Atlanta Center
11:58AM 35.5683 -80.8525 357° North 266 306 5,000 -480 Level Atlanta Center
12:00PM 35.6394 -80.8575 357° North 213 245 4,100 -480 Descending Atlanta Center
12:01PM 35.6633 -80.8922 310° West 140 161 4,000  Descending Atlanta Center
12:02PM 35.6517 -80.9283 248° West 135 155 4,100  Climbing Atlanta Center
12:03PM 35.6083 -80.9456 198° South 146 168 4,000 -60 Descending Atlanta Center
12:04PM 35.5711 -80.9597 197° South 134 154 4,000  Level Atlanta Center
12:05PM 35.5339 -80.9661 188° South 140 161 4,100  Climbing Atlanta Center
12:06PM 35.4983 -80.9650 179° South 148 170 4,000 -60 Descending Atlanta Center
12:07PM 35.4564 -80.9614 176° South 145 167 4,000  Level Atlanta Center
12:08PM 35.4167 -80.9553 173° South 144 166 4,000  Level Atlanta Center
12:09PM 35.3750 -80.9542 179° South 144 166 4,000 -480 Level Atlanta Center
12:10PM 35.3289 -80.9458 172° South 144 166 3,000 -840 Descending Atlanta Center
12:11PM 35.2911 -80.9447 179° South 131 151 2,200 -780 Descending Atlanta Center
12:12PM 35.2661 -80.9431 177° South 125 144 1,700 -720 Descending Atlanta Center